Time;durP1;ratioP1;P1;durP2;ratioP2;P2;SDS_P1;SDS_P2;PMS_P1;PMS_P2;Temp;Humidity;BMP_temperature;BMP_pressure;BME280_temperature;BME280_humidity;BME280_pressure;Samples;Min_cycle;Max_cycle;Signal;HPM_P1;HPM_P2
2023/10/17 00:01:17;;;;;;;1.25;0.50;;;8.00;99.90;;;;;;5064369;28;20044;-76
2023/10/17 00:03:45;;;;;;;1.92;1.00;;;8.00;99.90;;;;;;5045433;28;20033;-76
2023/10/17 00:06:13;;;;;;;1.45;0.52;;;8.00;99.90;;;;;;5062154;28;20052;-76
2023/10/17 00:08:39;;;;;;;1.40;0.47;;;8.00;99.90;;;;;;5061186;28;20067;-76
2023/10/17 00:11:21;;;;;;;0.70;0.50;;;7.90;99.90;;;;;;5046996;28;20036;-76
2023/10/17 00:13:59;;;;;;;1.80;0.50;;;8.00;99.90;;;;;;5045256;28;20045;-76
2023/10/17 00:16:28;;;;;;;2.22;0.80;;;7.90;99.90;;;;;;5077191;28;20127;-76
2023/10/17 00:18:54;;;;;;;0.77;0.52;;;7.90;99.90;;;;;;5061964;28;20045;-76
2023/10/17 00:21:22;;;;;;;3.42;0.43;;;7.80;99.90;;;;;;5061232;28;20032;-76
2023/10/17 00:23:50;;;;;;;1.40;0.95;;;7.80;99.90;;;;;;5075393;28;20479;-76
2023/10/17 00:26:18;;;;;;;0.85;0.40;;;7.80;99.90;;;;;;5095334;28;20518;-76
2023/10/17 00:28:52;;;;;;;1.00;0.47;;;7.80;99.90;;;;;;5060157;28;20041;-76
2023/10/17 00:31:21;;;;;;;1.08;0.52;;;7.80;99.90;;;;;;5044254;28;20043;-76
2023/10/17 00:33:57;;;;;;;1.02;0.70;;;7.80;99.90;;;;;;5062430;28;20542;-76
2023/10/17 00:36:26;;;;;;;;;;;7.80;99.90;;;;;;5059963;28;20090;-75
2023/10/17 00:39:08;;;;;;;0.77;0.50;;;7.80;99.90;;;;;;5089482;28;19996;-76
2023/10/17 00:44:30;;;;;;;0.45;0.35;;;7.80;99.90;;;;;;5052043;28;20078;-76
2023/10/17 00:46:57;;;;;;;0.65;0.32;;;7.70;99.90;;;;;;5046107;28;20058;-76
2023/10/17 00:49:25;;;;;;;0.90;0.30;;;7.80;99.90;;;;;;5061137;28;20077;-76
2023/10/17 00:51:55;;;;;;;1.50;0.55;;;7.70;99.90;;;;;;5047327;28;20067;-76
2023/10/17 00:54:24;;;;;;;0.40;0.40;;;7.70;99.90;;;;;;5061349;28;20028;-76
2023/10/17 00:56:55;;;;;;;1.88;0.47;;;7.70;99.90;;;;;;5056455;28;20175;-76
2023/10/17 00:59:24;;;;;;;0.65;0.40;;;7.70;99.90;;;;;;5096594;27;20040;-76
2023/10/17 01:01:51;;;;;;;0.17;0.17;;;7.70;99.90;;;;;;5044420;28;20043;-76
2023/10/17 01:04:19;;;;;;;0.38;0.28;;;7.70;99.90;;;;;;5062307;28;20040;-76
2023/10/17 01:06:46;;;;;;;0.55;0.30;;;7.70;99.90;;;;;;5045278;28;20435;-75
2023/10/17 01:09:18;;;;;;;2.70;0.75;;;7.60;99.90;;;;;;5060533;28;20039;-76
2023/10/17 01:11:48;;;;;;;1.30;0.55;;;7.60;99.90;;;;;;5060805;28;20155;-76
2023/10/17 01:14:20;;;;;;;0.68;0.32;;;7.60;99.90;;;;;;5060839;28;20036;-76
2023/10/17 01:16:46;;;;;;;1.33;0.68;;;7.60;99.90;;;;;;5059481;28;20146;-76
2023/10/17 01:19:15;;;;;;;0.30;0.28;;;7.60;99.90;;;;;;5044036;28;20078;-76
2023/10/17 01:21:41;;;;;;;0.80;0.47;;;7.60;99.90;;;;;;5062397;28;20045;-76
2023/10/17 01:24:08;;;;;;;0.40;0.20;;;7.60;99.90;;;;;;5059134;28;20091;-76
2023/10/17 01:26:37;;;;;;;1.27;0.73;;;7.60;99.90;;;;;;5045073;28;20163;-76
2023/10/17 01:29:04;;;;;;;0.98;0.40;;;7.60;99.90;;;;;;5059534;28;20046;-76
2023/10/17 01:31:31;;;;;;;0.63;0.20;;;7.60;99.90;;;;;;5045767;28;20486;-76
2023/10/17 01:33:59;;;;;;;0.85;0.10;;;7.60;99.90;;;;;;5057570;28;20725;-76
2023/10/17 01:36:26;;;;;;;1.38;0.60;;;7.60;99.90;;;;;;5058114;28;20067;-76
2023/10/17 01:38:52;;;;;;;0.68;0.55;;;7.50;99.90;;;;;;5062423;28;20060;-76
2023/10/17 01:41:18;;;;;;;0.88;0.43;;;7.60;99.90;;;;;;5061143;28;20038;-76
2023/10/17 01:43:48;;;;;;;0.80;0.60;;;7.60;99.90;;;;;;5045631;28;20045;-76
2023/10/17 01:46:15;;;;;;;2.70;0.50;;;7.60;99.90;;;;;;5059023;28;20055;-76
2023/10/17 01:48:46;;;;;;;0.90;0.45;;;7.60;99.90;;;;;;5044774;28;20490;-76
2023/10/17 01:51:13;;;;;;;0.22;0.20;;;7.60;99.90;;;;;;5060599;28;20436;-76
2023/10/17 01:53:40;;;;;;;0.70;0.50;;;7.60;99.90;;;;;;5056406;28;20524;-76
2023/10/17 01:56:15;;;;;;;0.45;0.30;;;7.60;99.90;;;;;;5066029;28;20048;-76
2023/10/17 01:58:50;;;;;;;0.65;0.50;;;7.60;99.90;;;;;;5067719;28;20037;-75
2023/10/17 02:01:29;;;;;;;1.88;0.70;;;7.60;99.90;;;;;;5067754;28;20083;-76
2023/10/17 02:04:03;;;;;;;1.83;0.55;;;7.50;99.90;;;;;;5062517;28;20050;-76
2023/10/17 02:06:30;;;;;;;0.95;0.50;;;7.50;99.90;;;;;;5048416;28;20036;-76
2023/10/17 02:08:58;;;;;;;0.20;0.20;;;7.50;99.90;;;;;;5058900;28;20137;-76
2023/10/17 02:11:24;;;;;;;0.65;0.28;;;7.50;99.90;;;;;;5058565;28;20114;-76
2023/10/17 02:13:57;;;;;;;0.93;0.52;;;7.40;99.90;;;;;;5043206;28;20055;-76
2023/10/17 02:16:32;;;;;;;1.58;0.65;;;7.40;99.90;;;;;;5058275;28;20041;-76
2023/10/17 02:19:08;;;;;;;0.68;0.45;;;7.40;99.90;;;;;;5075976;28;20037;-76
2023/10/17 02:21:39;;;;;;;1.10;0.60;;;7.40;99.90;;;;;;5055998;28;20045;-76
2023/10/17 02:24:06;;;;;;;0.50;0.20;;;7.40;99.90;;;;;;5057360;28;20041;-76
2023/10/17 02:26:41;;;;;;;0.52;0.38;;;7.30;99.90;;;;;;5044130;28;20444;-76
2023/10/17 02:29:11;;;;;;;0.73;0.40;;;7.30;99.90;;;;;;5061226;28;20529;-76
2023/10/17 02:31:37;;;;;;;1.20;0.35;;;7.20;99.90;;;;;;5060180;28;20048;-76
2023/10/17 02:34:03;;;;;;;1.00;0.50;;;7.10;99.90;;;;;;5062074;28;20044;-76
2023/10/17 02:36:29;;;;;;;0.40;0.20;;;7.10;99.90;;;;;;5055586;28;20093;-76
2023/10/17 02:38:55;;;;;;;1.20;0.50;;;7.10;99.90;;;;;;5060704;28;20064;-76
2023/10/17 02:41:22;;;;;;;1.80;0.45;;;7.10;99.90;;;;;;5043309;28;20037;-76
2023/10/17 02:43:54;;;;;;;1.08;0.68;;;7.00;99.90;;;;;;5043420;28;20045;-76
2023/10/17 02:46:24;;;;;;;0.20;0.20;;;7.00;99.90;;;;;;5087102;28;20028;-76
2023/10/17 02:48:51;;;;;;;0.32;0.22;;;7.00;99.90;;;;;;5045630;28;20045;-76
2023/10/17 02:53:53;;;;;;;0.75;0.43;;;7.10;99.90;;;;;;5060238;28;20036;-75
2023/10/17 02:56:25;;;;;;;0.22;0.13;;;7.10;99.90;;;;;;5043123;28;20044;-76
2023/10/17 02:59:06;;;;;;;1.25;0.40;;;7.10;99.90;;;;;;5060533;28;20041;-76
2023/10/17 03:01:33;;;;;;;0.98;0.50;;;7.10;99.90;;;;;;5043343;28;20039;-76
2023/10/17 03:04:07;;;;;;;0.20;0.13;;;7.10;99.90;;;;;;5060039;28;20041;-76
2023/10/17 03:06:37;;;;;;;0.52;0.28;;;7.00;99.90;;;;;;5026800;28;20029;-76
2023/10/17 03:09:15;;;;;;;0.30;0.30;;;6.90;99.90;;;;;;5060687;28;20106;-76
2023/10/17 03:11:50;;;;;;;2.60;0.50;;;7.00;99.90;;;;;;5057382;28;20032;-76
2023/10/17 03:14:19;;;;;;;0.30;0.20;;;6.90;99.90;;;;;;5074416;28;20043;-76
2023/10/17 03:16:54;;;;;;;0.88;0.40;;;6.90;99.90;;;;;;5058972;28;20131;-76
2023/10/17 03:19:26;;;;;;;1.50;0.43;;;6.90;99.90;;;;;;5063579;28;20087;-76
2023/10/17 03:21:58;;;;;;;0.30;0.13;;;6.80;99.90;;;;;;5077119;28;20127;-76
2023/10/17 03:24:38;;;;;;;0.68;0.20;;;6.80;99.90;;;;;;5065382;28;20086;-76
2023/10/17 03:27:08;;;;;;;0.65;0.30;;;6.90;99.90;;;;;;5062946;28;20114;-76
2023/10/17 03:29:41;;;;;;;2.05;0.60;;;6.90;99.90;;;;;;5064144;28;20246;-76
2023/10/17 03:32:11;;;;;;;4.40;0.73;;;6.90;99.90;;;;;;5067527;28;20139;-76
2023/10/17 03:34:37;;;;;;;0.38;0.28;;;6.90;99.90;;;;;;5064521;28;20040;-76
2023/10/17 03:39:52;;;;;;;0.25;0.22;;;6.90;99.90;;;;;;5065243;28;20040;-76
2023/10/17 03:45:12;;;;;;;0.73;0.40;;;6.90;99.90;;;;;;5065411;28;20049;-76
2023/10/17 03:47:39;;;;;;;0.28;0.25;;;6.90;99.90;;;;;;5059347;28;20032;-76
2023/10/17 03:50:08;;;;;;;2.28;0.40;;;6.90;99.90;;;;;;5045931;28;20041;-76
2023/10/17 03:52:35;;;;;;;0.30;0.30;;;6.90;99.90;;;;;;5061607;28;20041;-76
2023/10/17 03:55:00;;;;;;;0.60;0.45;;;6.90;99.90;;;;;;5047573;28;20043;-76
2023/10/17 03:57:27;;;;;;;3.72;0.50;;;6.90;99.90;;;;;;5061875;28;20044;-76
2023/10/17 03:59:56;;;;;;;1.25;0.63;;;6.90;99.90;;;;;;5097683;28;20047;-76
2023/10/17 04:02:24;;;;;;;4.95;0.57;;;7.00;99.90;;;;;;5083336;28;20097;-76
2023/10/17 04:04:54;;;;;;;1.67;0.38;;;7.00;99.90;;;;;;5049220;28;20043;-76
2023/10/17 04:07:27;;;;;;;0.70;0.40;;;7.00;99.90;;;;;;5062078;28;20037;-76
2023/10/17 04:12:38;;;;;;;0.88;0.40;;;7.00;99.90;;;;;;5094905;28;20130;-76
2023/10/17 04:15:09;;;;;;;0.70;0.55;;;7.00;99.90;;;;;;5060763;28;20040;-76
2023/10/17 04:17:36;;;;;;;0.88;0.30;;;7.00;99.90;;;;;;5058932;28;20051;-76
2023/10/17 04:20:12;;;;;;;0.47;0.40;;;7.00;99.90;;;;;;5059442;28;20041;-76
2023/10/17 04:22:38;;;;;;;;;;;7.00;99.90;;;;;;5044036;28;20458;-76
2023/10/17 04:25:50;;;;;;;1.10;0.17;;;7.00;99.90;;;;;;5062200;28;20405;-76
2023/10/17 04:27:59;;;;;;;1.08;0.50;;;7.10;99.90;;;;;;5057913;28;20497;-76
2023/10/17 04:31:10;;;;;;;0.93;0.47;;;7.10;99.90;;;;;;5061744;28;20090;-76
2023/10/17 04:33:19;;;;;;;0.80;0.40;;;7.10;99.90;;;;;;5056744;28;20052;-76
2023/10/17 04:35:53;;;;;;;0.90;0.38;;;7.10;99.90;;;;;;5046305;28;20033;-76
2023/10/17 04:44:03;;;;;;;2.47;0.80;;;7.10;99.90;;;;;;5061561;28;20048;-76
2023/10/17 04:46:29;;;;;;;1.05;0.45;;;7.20;99.90;;;;;;5045085;28;20139;-76
2023/10/17 04:49:06;;;;;;;0.70;0.30;;;7.20;99.90;;;;;;5045533;28;20127;-76
2023/10/17 04:51:38;;;;;;;0.35;0.32;;;7.20;99.90;;;;;;5065793;28;20036;-76
2023/10/17 04:54:20;;;;;;;0.65;0.35;;;7.20;99.90;;;;;;5063237;28;20044;-76
2023/10/17 04:57:02;;;;;;;1.40;0.57;;;7.20;99.90;;;;;;5061443;28;20041;-76
2023/10/17 05:00:24;;;;;;;1.08;0.52;;;7.20;99.90;;;;;;5044224;28;20049;-76
2023/10/17 06:18:32;;;;;;;1.38;0.70;;;7.60;99.90;;;;;;5059695;28;20079;-76
2023/10/17 06:34:16;;;;;;;1.77;0.85;;;7.60;99.90;;;;;;5062510;28;20040;-76
2023/10/17 06:36:43;;;;;;;2.20;1.08;;;7.70;99.90;;;;;;5057322;28;20048;-76
2023/10/17 06:39:17;;;;;;;3.78;1.58;;;7.70;99.90;;;;;;5058740;28;20118;-76
2023/10/17 06:41:45;;;;;;;4.68;1.75;;;7.70;99.90;;;;;;5076723;28;20036;-77
2023/10/17 06:44:15;;;;;;;3.20;1.95;;;7.60;99.90;;;;;;5066963;28;20033;-78
2023/10/17 06:46:58;;;;;;;2.00;1.15;;;7.60;99.90;;;;;;5061425;28;20070;-77
2023/10/17 06:52:40;;;;;;;2.15;1.00;;;7.60;99.90;;;;;;5055317;28;20444;-77
2023/10/17 06:54:52;;;;;;;3.03;0.80;;;7.60;99.90;;;;;;5061089;28;22034;-79
2023/10/17 06:57:33;;;;;;;1.30;0.63;;;7.70;99.90;;;;;;5061272;28;20792;-78
2023/10/17 07:00:16;;;;;;;1.38;0.75;;;7.70;99.90;;;;;;5058248;28;20119;-76
2023/10/17 07:02:48;;;;;;;2.72;1.25;;;7.80;99.90;;;;;;5062199;28;20040;-77
2023/10/17 07:05:14;;;;;;;1.75;0.80;;;7.80;99.90;;;;;;5049003;28;20054;-77
2023/10/17 07:07:41;;;;;;;2.45;1.13;;;7.90;99.90;;;;;;5041490;28;20025;-77
2023/10/17 07:10:37;;;;;;;1.30;0.77;;;7.90;99.90;;;;;;5045444;28;20501;-77
2023/10/17 07:13:41;;;;;;;1.40;0.83;;;8.00;99.90;;;;;;5043400;28;20480;-77
2023/10/17 07:16:16;;;;;;;2.33;1.40;;;8.00;99.90;;;;;;5063678;28;20044;-77
2023/10/17 07:18:51;;;;;;;5.82;1.30;;;8.00;99.90;;;;;;5048693;28;20040;-77
2023/10/17 07:21:23;;;;;;;1.95;1.02;;;8.10;99.90;;;;;;5061937;28;20037;-77
2023/10/17 07:23:49;;;;;;;2.53;1.20;;;8.10;99.90;;;;;;5058379;28;20040;-76
2023/10/17 07:26:58;;;;;;;3.35;1.42;;;8.10;99.90;;;;;;5062243;28;20040;-77
2023/10/17 07:29:05;;;;;;;1.85;1.00;;;8.10;99.90;;;;;;5060275;28;20049;-76
2023/10/17 07:31:32;;;;;;;2.70;1.15;;;8.20;99.90;;;;;;5047289;28;20119;-77
2023/10/17 07:36:34;;;;;;;2.47;1.23;;;8.20;99.90;;;;;;5059131;28;20041;-77
2023/10/17 07:39:07;;;;;;;3.72;1.60;;;8.30;99.90;;;;;;5046968;28;20123;-78
2023/10/17 07:41:36;;;;;;;3.45;1.38;;;8.30;99.90;;;;;;5044935;28;20569;-77
2023/10/17 07:44:14;;;;;;;3.33;1.85;;;8.40;99.90;;;;;;5063113;28;20516;-78
2023/10/17 07:46:39;;;;;;;3.88;1.63;;;8.40;99.90;;;;;;5076760;28;20182;-78
2023/10/17 07:49:05;;;;;;;2.63;1.45;;;8.40;99.90;;;;;;5064530;28;20494;-78
2023/10/17 07:51:32;;;;;;;4.03;1.77;;;8.40;99.90;;;;;;5058503;28;20411;-77
2023/10/17 07:53:58;;;;;;;4.63;1.90;;;8.40;99.90;;;;;;5061303;28;20054;-78
2023/10/17 07:56:25;;;;;;;2.38;1.52;;;8.50;99.90;;;;;;5058199;28;20044;-78
2023/10/17 07:59:04;;;;;;;4.63;1.42;;;8.50;99.90;;;;;;5063171;28;20041;-78
2023/10/17 08:01:38;;;;;;;3.33;1.70;;;8.60;99.90;;;;;;5044955;28;20040;-78
2023/10/17 08:06:42;;;;;;;5.13;1.95;;;8.60;99.90;;;;;;5061444;28;20044;-78
2023/10/17 08:11:52;;;;;;;2.42;1.25;;;8.60;99.90;;;;;;5059914;28;20044;-78
2023/10/17 08:14:41;;;;;;;2.83;1.60;;;8.60;99.90;;;;;;5041530;28;20098;-77
2023/10/17 08:17:09;;;;;;;3.67;2.05;;;8.60;99.90;;;;;;5057741;28;20037;-77
2023/10/17 08:22:19;;;;;;;4.53;2.13;;;8.60;99.90;;;;;;5052458;28;20041;-78
2023/10/17 08:24:51;;;;;;;3.90;1.90;;;8.60;99.90;;;;;;5054647;28;20032;-77
2023/10/17 08:29:45;;;;;;;5.38;1.48;;;8.70;99.90;;;;;;5053787;28;20080;-77
2023/10/17 08:34:47;;;;;;;3.57;1.73;;;8.70;99.90;;;;;;5082932;28;20443;-77
2023/10/17 08:37:25;;;;;;;3.65;1.55;;;8.70;99.90;;;;;;5034610;28;20041;-77
2023/10/17 08:39:51;;;;;;;4.00;1.58;;;8.70;99.90;;;;;;5057031;28;20033;-77
2023/10/17 08:44:56;;;;;;;2.88;1.33;;;8.80;99.90;;;;;;5046865;28;20045;-77
2023/10/17 08:47:30;;;;;;;1.75;1.15;;;8.80;99.90;;;;;;5034326;28;20111;-77
2023/10/17 08:50:02;;;;;;;3.40;1.73;;;8.80;99.90;;;;;;5052266;28;21658;-77
2023/10/17 08:52:31;;;;;;;4.18;1.67;;;8.80;99.90;;;;;;5052015;28;20032;-77
2023/10/17 08:54:57;;;;;;;3.30;1.20;;;9.00;99.90;;;;;;5066588;28;20405;-77
2023/10/17 08:57:23;;;;;;;2.90;1.08;;;8.90;99.90;;;;;;5056618;28;20101;-77
2023/10/17 09:02:43;;;;;;;2.20;1.15;;;8.90;99.90;;;;;;5053987;28;20512;-77
2023/10/17 09:05:18;;;;;;;4.13;1.17;;;8.90;99.90;;;;;;5049857;28;20291;-77
2023/10/17 09:07:48;;;;;;;2.78;0.95;;;8.90;99.90;;;;;;5037536;28;20219;-76
2023/10/17 09:10:20;;;;;;;2.70;1.20;;;9.00;99.90;;;;;;5032183;28;20132;-77
2023/10/17 09:15:48;;;;;;;1.75;0.93;;;9.00;99.90;;;;;;5052688;28;20052;-77
2023/10/17 09:18:14;;;;;;;3.65;0.68;;;9.00;99.90;;;;;;5051476;28;20048;-78
2023/10/17 09:20:41;;;;;;;6.32;1.40;;;9.10;99.90;;;;;;5037232;28;20035;-77
2023/10/17 09:23:24;;;;;;;1.88;0.80;;;9.10;99.90;;;;;;5051939;28;20032;-77
2023/10/17 09:25:58;;;;;;;1.90;0.98;;;9.10;99.90;;;;;;5049008;28;20776;-77
2023/10/17 09:28:25;;;;;;;1.65;0.75;;;9.10;99.90;;;;;;5050774;28;20075;-76
2023/10/17 09:30:57;;;;;;;2.30;0.98;;;9.10;99.90;;;;;;5051882;28;20040;-77
2023/10/17 09:33:30;;;;;;;3.58;0.93;;;9.10;99.90;;;;;;5038089;28;20048;-76
2023/10/17 09:36:00;;;;;;;3.28;0.70;;;9.20;99.90;;;;;;5080978;27;20413;-81
2023/10/17 09:38:34;;;;;;;2.17;0.90;;;9.20;99.90;;;;;;5083191;28;20043;-81
2023/10/17 09:41:00;;;;;;;0.95;0.57;;;9.20;99.90;;;;;;5042518;28;20045;-81
2023/10/17 09:43:27;;;;;;;1.58;0.63;;;9.20;99.90;;;;;;5054093;28;20055;-82
2023/10/17 09:46:00;;;;;;;1.15;0.65;;;9.20;99.90;;;;;;5047497;28;21918;-80
2023/10/17 09:48:46;;;;;;;0.70;0.50;;;9.30;99.90;;;;;;5071641;28;20509;-81
2023/10/17 09:51:26;;;;;;;2.22;0.73;;;9.30;99.90;;;;;;5055461;28;20040;-81
2023/10/17 09:53:58;;;;;;;0.75;0.20;;;9.30;99.90;;;;;;5053556;28;20041;-82
2023/10/17 09:56:31;;;;;;;0.40;0.22;;;9.30;99.90;;;;;;5037216;28;20523;-82
2023/10/17 09:59:03;;;;;;;1.00;0.55;;;9.30;99.90;;;;;;5066406;28;20508;-81
2023/10/17 10:01:31;;;;;;;0.98;0.40;;;9.30;99.90;;;;;;5068573;28;20028;-81
2023/10/17 10:04:01;;;;;;;1.58;1.10;;;9.40;99.90;;;;;;5032641;28;20036;-82
2023/10/17 10:06:31;;;;;;;0.93;0.40;;;9.40;99.90;;;;;;5079508;28;20064;-81
2023/10/17 10:09:13;;;;;;;1.85;0.75;;;9.40;99.90;;;;;;5052289;28;20043;-82
2023/10/17 10:11:51;;;;;;;0.65;0.60;;;9.40;99.90;;;;;;5056062;28;20054;-80
2023/10/17 10:14:33;;;;;;;2.05;0.57;;;9.40;99.90;;;;;;5069678;28;20044;-82
2023/10/17 10:17:03;;;;;;;0.82;0.30;;;9.40;99.90;;;;;;5053204;28;20040;-81
2023/10/17 10:19:41;;;;;;;0.70;0.43;;;9.50;99.90;;;;;;5085463;28;20187;-81
2023/10/17 10:22:13;;;;;;;1.45;0.55;;;9.50;99.90;;;;;;5043356;28;20036;-81
2023/10/17 10:24:41;;;;;;;0.80;0.32;;;9.50;99.90;;;;;;5056566;28;20123;-81
2023/10/17 10:27:25;;;;;;;0.60;0.40;;;9.50;99.90;;;;;;5059586;28;20040;-81
2023/10/17 10:30:18;;;;;;;1.35;0.50;;;9.60;99.90;;;;;;5063372;28;20564;-81
2023/10/17 10:32:44;;;;;;;0.30;0.13;;;9.60;99.90;;;;;;5058660;28;20110;-81
2023/10/17 10:35:11;;;;;;;0.28;0.17;;;9.60;99.90;;;;;;5059932;28;20514;-81
2023/10/17 10:37:54;;;;;;;0.57;0.32;;;9.60;99.90;;;;;;5060720;28;20119;-81
2023/10/17 10:40:30;;;;;;;0.40;0.30;;;9.60;99.90;;;;;;5060461;28;20044;-81
2023/10/17 10:42:59;;;;;;;0.57;0.20;;;9.70;99.90;;;;;;5043842;28;20036;-81
2023/10/17 10:45:26;;;;;;;0.43;0.20;;;9.70;99.90;;;;;;5071766;28;20181;-80
2023/10/17 10:47:57;;;;;;;0.57;0.30;;;9.70;99.90;;;;;;5055933;28;20036;-82
2023/10/17 10:50:25;;;;;;;0.68;0.45;;;9.80;99.90;;;;;;5075278;28;21464;-81
2023/10/17 10:52:51;;;;;;;1.38;0.50;;;9.80;99.90;;;;;;5075383;28;20033;-81
2023/10/17 10:55:17;;;;;;;0.98;0.32;;;9.80;99.90;;;;;;5043556;28;20122;-81
2023/10/17 10:57:46;;;;;;;0.50;0.20;;;9.80;99.90;;;;;;5058642;28;20040;-81
2023/10/17 11:00:12;;;;;;;0.20;0.20;;;9.90;99.90;;;;;;5094506;28;20033;-81
2023/10/17 11:02:37;;;;;;;0.45;0.28;;;9.80;99.90;;;;;;5048720;28;20040;-81
2023/10/17 11:05:06;;;;;;;0.43;0.20;;;9.90;99.90;;;;;;5063986;28;20093;-81
2023/10/17 11:07:33;;;;;;;0.93;0.45;;;9.90;99.90;;;;;;5055271;28;20047;-81
2023/10/17 11:10:07;;;;;;;0.50;0.30;;;9.90;99.90;;;;;;5074191;28;20093;-81
2023/10/17 11:12:33;;;;;;;0.52;0.30;;;9.90;99.90;;;;;;5060751;28;20181;-81
2023/10/17 11:15:22;;;;;;;0.45;0.17;;;10.00;99.90;;;;;;5060154;28;20048;-81
2023/10/17 11:17:47;;;;;;;1.77;0.30;;;10.00;99.90;;;;;;5095192;28;20132;-81
2023/10/17 11:20:18;;;;;;;0.20;0.15;;;10.00;99.90;;;;;;5055069;28;20052;-83
2023/10/17 11:22:46;;;;;;;0.30;0.10;;;10.00;99.90;;;;;;5033642;28;20041;-81
2023/10/17 11:25:21;;;;;;;0.10;0.10;;;10.00;99.90;;;;;;5061775;28;20028;-81
2023/10/17 11:27:54;;;;;;;0.57;0.30;;;10.10;99.90;;;;;;5061597;28;20033;-81
2023/10/17 11:30:20;;;;;;;0.68;0.30;;;10.10;99.90;;;;;;5056094;28;20801;-81
2023/10/17 11:32:47;;;;;;;0.20;0.20;;;10.10;99.90;;;;;;5045892;28;20056;-81
2023/10/17 11:35:19;;;;;;;0.73;0.40;;;10.10;99.90;;;;;;5060834;28;20119;-81
2023/10/17 11:37:47;;;;;;;1.60;0.52;;;10.10;99.90;;;;;;5047559;28;20036;-81
2023/10/17 11:40:54;;;;;;;0.73;0.38;;;10.10;99.90;;;;;;5045172;28;20064;-81
2023/10/17 11:43:20;;;;;;;0.28;0.20;;;10.20;99.90;;;;;;5061131;28;20040;-81
2023/10/17 11:45:47;;;;;;;0.88;0.35;;;10.10;99.90;;;;;;5047479;28;20178;-81
2023/10/17 11:48:36;;;;;;;0.57;0.25;;;10.10;99.90;;;;;;5077047;28;20131;-81
2023/10/17 11:51:12;;;;;;;2.25;0.38;;;10.20;99.90;;;;;;5090612;27;20044;-81
2023/10/17 11:54:09;;;;;;;0.73;0.30;;;10.20;99.90;;;;;;5076487;28;20422;-79
2023/10/17 11:56:37;;;;;;;0.57;0.30;;;10.20;99.90;;;;;;5053955;28;20442;-81
2023/10/17 11:59:06;;;;;;;0.50;0.20;;;10.20;99.90;;;;;;5043248;28;20041;-80
2023/10/17 12:01:32;;;;;;;0.85;0.32;;;10.20;99.90;;;;;;5059089;28;20057;-81
2023/10/17 12:04:06;;;;;;;0.88;0.32;;;10.20;99.90;;;;;;5043383;28;20082;-81
2023/10/17 12:06:40;;;;;;;1.08;0.60;;;10.30;99.90;;;;;;5059514;28;20489;-81
2023/10/17 12:09:18;;;;;;;1.95;0.50;;;10.30;99.90;;;;;;5074247;28;20036;-82
2023/10/17 12:11:48;;;;;;;1.35;0.28;;;10.30;99.90;;;;;;5058649;28;20036;-81
2023/10/17 12:14:21;;;;;;;0.45;0.32;;;10.30;99.90;;;;;;5058328;28;20087;-82
2023/10/17 12:16:54;;;;;;;1.25;0.30;;;10.30;99.90;;;;;;5060866;28;20067;-81
2023/10/17 12:19:20;;;;;;;0.82;0.43;;;10.30;99.90;;;;;;5057696;28;20381;-81
2023/10/17 12:21:48;;;;;;;3.97;0.35;;;10.30;99.90;;;;;;5044304;28;20044;-81
2023/10/17 12:24:24;;;;;;;0.77;0.20;;;10.30;99.90;;;;;;5047267;28;20036;-82
2023/10/17 12:26:50;;;;;;;1.00;0.57;;;10.30;99.90;;;;;;5071461;28;20040;-81
2023/10/17 12:29:19;;;;;;;0.85;0.32;;;10.40;99.90;;;;;;5070751;28;20047;-81
2023/10/17 12:31:45;;;;;;;0.63;0.30;;;10.40;99.90;;;;;;5081660;28;20040;-81
2023/10/17 12:34:15;;;;;;;0.50;0.30;;;10.40;99.90;;;;;;5064456;28;20078;-81
2023/10/17 12:36:41;;;;;;;1.05;0.43;;;10.40;99.90;;;;;;5062847;28;20406;-81
2023/10/17 12:39:10;;;;;;;2.78;0.73;;;10.40;99.90;;;;;;5061368;28;20048;-80
2023/10/17 12:41:35;;;;;;;1.10;0.45;;;10.40;99.90;;;;;;5062616;28;20042;-81
2023/10/17 12:44:02;;;;;;;1.52;0.52;;;10.40;99.90;;;;;;5057083;28;20032;-82
2023/10/17 12:46:27;;;;;;;2.05;0.40;;;10.50;99.90;;;;;;5056690;28;20127;-81
2023/10/17 12:48:53;;;;;;;1.48;0.40;;;10.40;99.90;;;;;;5077000;28;20628;-80
2023/10/17 12:51:23;;;;;;;1.35;0.52;;;10.50;99.90;;;;;;5037697;28;20037;-81
2023/10/17 12:53:52;;;;;;;0.85;0.40;;;10.40;99.90;;;;;;5040975;28;20067;-81
2023/10/17 12:56:20;;;;;;;0.75;0.43;;;10.50;99.90;;;;;;5056737;28;20127;-81
2023/10/17 12:58:46;;;;;;;0.75;0.30;;;10.50;99.90;;;;;;5044123;28;20047;-81
2023/10/17 13:01:12;;;;;;;1.00;0.63;;;10.50;99.90;;;;;;5055108;28;20072;-81
2023/10/17 13:03:38;;;;;;;0.60;0.20;;;10.50;99.90;;;;;;5046072;28;20095;-81
2023/10/17 13:06:10;;;;;;;1.23;0.50;;;10.50;99.90;;;;;;5060887;28;20040;-81
2023/10/17 13:08:36;;;;;;;1.38;0.30;;;10.50;99.90;;;;;;5061143;28;20037;-81
2023/10/17 13:11:02;;;;;;;1.33;0.43;;;10.60;99.90;;;;;;5047457;28;20074;-81
2023/10/17 13:13:30;;;;;;;2.38;0.50;;;10.50;99.90;;;;;;5061473;28;20033;-81
2023/10/17 13:15:57;;;;;;;0.57;0.35;;;10.50;99.90;;;;;;5057906;28;20449;-81
2023/10/17 13:18:24;;;;;;;0.65;0.50;;;10.60;99.90;;;;;;5064118;28;20465;-81
2023/10/17 13:20:53;;;;;;;1.90;0.50;;;10.60;99.90;;;;;;5089849;27;20043;-80
2023/10/17 13:23:20;;;;;;;0.98;0.32;;;10.60;99.90;;;;;;5057102;28;20038;-81
2023/10/17 13:25:46;;;;;;;0.32;0.30;;;10.60;99.90;;;;;;5043390;28;20071;-81
2023/10/17 13:28:12;;;;;;;0.63;0.22;;;10.60;99.90;;;;;;5043201;28;20036;-81
2023/10/17 13:30:38;;;;;;;0.80;0.45;;;10.60;99.90;;;;;;5058947;28;20046;-81
2023/10/17 13:33:04;;;;;;;1.00;0.40;;;10.60;99.90;;;;;;5060658;28;20040;-80
2023/10/17 13:35:30;;;;;;;0.77;0.38;;;10.60;99.90;;;;;;5042743;28;20482;-81
2023/10/17 13:37:58;;;;;;;1.60;0.57;;;10.60;99.90;;;;;;5041458;28;20040;-80
2023/10/17 13:40:25;;;;;;;1.20;0.30;;;10.60;99.90;;;;;;5041519;28;20043;-81
2023/10/17 13:42:55;;;;;;;0.45;0.25;;;10.70;99.90;;;;;;5056681;28;20139;-81
2023/10/17 13:45:21;;;;;;;0.52;0.20;;;10.70;99.90;;;;;;5058570;28;20033;-81
2023/10/17 13:47:53;;;;;;;1.13;0.52;;;10.60;99.90;;;;;;5056748;28;20036;-81
2023/10/17 13:50:19;;;;;;;1.02;0.30;;;10.70;99.90;;;;;;5042124;28;20401;-80
2023/10/17 13:52:49;;;;;;;2.13;0.38;;;10.60;99.90;;;;;;5038497;28;20379;-81
2023/10/17 13:55:25;;;;;;;0.20;0.20;;;10.60;99.90;;;;;;5059842;28;20051;-80
2023/10/17 13:58:04;;;;;;;;;;;10.60;99.90;;;;;;5069684;28;20040;-80
2023/10/17 14:00:51;;;;;;;1.00;0.40;;;10.60;99.90;;;;;;5053669;28;20032;-81
2023/10/17 14:03:17;;;;;;;1.27;0.43;;;10.60;99.90;;;;;;5072417;28;20036;-81
2023/10/17 14:05:47;;;;;;;0.82;0.40;;;10.70;99.90;;;;;;5047312;28;20052;-81
2023/10/17 14:08:17;;;;;;;0.22;0.20;;;10.70;99.90;;;;;;5058599;28;20036;-80
2023/10/17 14:10:44;;;;;;;1.00;0.30;;;10.60;99.90;;;;;;5041248;28;20052;-81
2023/10/17 14:13:12;;;;;;;0.40;0.30;;;10.70;99.90;;;;;;5070150;28;20036;-81
2023/10/17 14:15:38;;;;;;;0.50;0.20;;;10.70;99.90;;;;;;5042076;28;20127;-80
2023/10/17 14:18:29;;;;;;;0.52;0.32;;;10.60;99.90;;;;;;5037296;28;20048;-80
2023/10/17 14:21:16;;;;;;;0.75;0.35;;;10.70;99.90;;;;;;5053407;28;20090;-81
2023/10/17 14:23:57;;;;;;;0.43;0.25;;;10.60;99.90;;;;;;5063072;28;20059;-81
2023/10/17 14:26:29;;;;;;;1.23;0.60;;;10.70;99.90;;;;;;5056824;28;20340;-80
2023/10/17 14:28:56;;;;;;;1.10;0.45;;;10.70;99.90;;;;;;5075282;28;20097;-80
2023/10/17 14:31:25;;;;;;;0.73;0.30;;;10.70;99.90;;;;;;5059027;28;20041;-80
2023/10/17 14:33:55;;;;;;;1.98;0.30;;;10.60;99.90;;;;;;5042451;28;20033;-80
2023/10/17 14:36:21;;;;;;;1.08;0.40;;;10.70;99.90;;;;;;5052420;28;20036;-80
2023/10/17 14:38:48;;;;;;;1.17;0.43;;;10.70;99.90;;;;;;5069732;28;20367;-80
2023/10/17 14:41:13;;;;;;;0.55;0.28;;;10.70;99.90;;;;;;5040713;28;20709;-81
2023/10/17 14:43:54;;;;;;;0.30;0.17;;;10.70;99.90;;;;;;5051405;28;21863;-81
2023/10/17 14:46:22;;;;;;;0.75;0.30;;;10.70;99.90;;;;;;5087003;28;20092;-81
2023/10/17 14:48:48;;;;;;;0.75;0.30;;;10.70;99.90;;;;;;5057996;28;20039;-80
2023/10/17 14:51:14;;;;;;;1.00;0.40;;;10.70;99.90;;;;;;5058315;28;20049;-81
2023/10/17 14:53:42;;;;;;;0.80;0.25;;;10.60;99.90;;;;;;5054846;28;21605;-80
2023/10/17 14:56:12;;;;;;;2.58;0.40;;;10.70;99.90;;;;;;5052867;28;20518;-80
2023/10/17 14:58:39;;;;;;;0.80;0.40;;;10.60;99.90;;;;;;5054375;28;20119;-81
2023/10/17 15:01:05;;;;;;;5.78;0.73;;;10.60;99.90;;;;;;5051993;28;20068;-82
2023/10/17 15:03:31;;;;;;;0.85;0.55;;;10.60;99.90;;;;;;5083283;28;20464;-81
2023/10/17 15:05:56;;;;;;;2.63;0.93;;;10.60;99.90;;;;;;5056452;28;20289;-81
2023/10/17 15:08:22;;;;;;;3.40;1.35;;;10.60;99.90;;;;;;5042022;28;20052;-82
2023/10/17 15:10:48;;;;;;;2.08;1.15;;;10.60;99.90;;;;;;5039382;28;20172;-82
2023/10/17 15:13:14;;;;;;;0.63;0.43;;;10.60;99.90;;;;;;5087423;28;20041;-81
2023/10/17 15:15:41;;;;;;;0.20;0.20;;;10.50;99.90;;;;;;5046260;28;20040;-81
2023/10/17 15:18:08;;;;;;;3.92;0.93;;;10.50;99.90;;;;;;5056556;28;20037;-81
2023/10/17 15:20:33;;;;;;;4.28;1.88;;;10.60;99.90;;;;;;5074779;28;20051;-81
2023/10/17 15:23:01;;;;;;;19.67;5.97;;;10.60;99.90;;;;;;5058724;28;20041;-82
2023/10/17 15:25:27;;;;;;;3.67;1.13;;;10.50;99.90;;;;;;5038532;28;20033;-80
2023/10/17 15:27:56;;;;;;;2.67;0.88;;;10.50;99.90;;;;;;5042562;28;20039;-80
2023/10/17 15:30:22;;;;;;;1.42;0.93;;;10.50;99.90;;;;;;5042514;28;20033;-80